AEST,Max TemperatureF,Mean TemperatureF,Min TemperatureF,Max Dew PointF,MeanDew PointF,Min DewpointF,Max Humidity, Mean Humidity, Min Humidity, Max Sea Level PressureIn, Mean Sea Level PressureIn, Min Sea Level PressureIn, Max VisibilityMiles, Mean VisibilityMiles, Min VisibilityMiles, Max Wind SpeedMPH, Mean Wind SpeedMPH, Max Gust SpeedMPH,PrecipitationIn, CloudCover, Events, WindDirDegrees
2013-3-1,82,80,77,81,78,77,100,93,81,29.77,29.71,29.65,,,,25,15,,1.22,,,67
2013-3-2,84,79,74,81,78,75,100,92,77,29.71,29.62,29.53,,,,21,11,32,0.55,,,96
2013-3-3,82,78,74,82,78,76,100,95,89,29.62,29.56,29.50,,,,23,15,,0.83,,,139
2013-3-4,84,80,75,82,79,75,100,96,84,29.68,29.62,29.56,,,,31,18,30,1.54,,,109
2013-3-5,82,78,75,81,78,73,100,96,86,29.74,29.66,29.59,,,,44,27,55,2.95,,,113
2013-3-6,80,77,74,79,75,73,100,92,78,29.83,29.75,29.70,,,,47,33,52,0.08,,,142
2013-3-7,80,76,73,75,74,72,100,87,72,29.86,29.80,29.74,,,,36,31,50,0.03,,,139
2013-3-8,80,78,75,75,73,70,94,85,71,29.89,29.83,29.80,,,,36,27,45,0.16,,,127
2013-3-9,82,78,74,76,74,72,100,87,71,29.89,29.84,29.80,,,,34,27,45,0.16,,,132
2013-3-10,80,76,71,75,73,70,100,89,71,29.89,29.85,29.80,,,,41,28,45,0.12,,,139
2013-3-11,79,74,69,77,72,66,100,89,78,29.89,29.83,29.80,,,,36,26,39,0.31,,,131
2013-3-12,78,74,69,73,72,70,100,86,74,29.86,29.81,29.77,,,,33,26,41,0.20,,,144
2013-3-13,79,74,70,73,71,70,94,82,71,29.81,29.77,29.71,,,,29,22,,0.00,,,140
2013-3-14,80,77,74,75,71,68,94,82,70,29.83,29.76,29.71,,,,24,17,,0.00,,,137
2013-3-15,80,77,74,73,72,68,89,81,65,29.92,29.84,29.79,,,,30,17,,0.00,,,151
2013-3-16,80,76,73,75,73,68,100,84,70,29.92,29.88,29.83,,,,29,22,,0.00,,,148
2013-3-17,83,78,74,75,71,63,94,77,46,29.89,29.82,29.76,,,,25,18,,0.00,,,146
2013-3-18,82,80,77,75,73,66,89,79,60,29.87,29.81,29.74,,,,39,21,47,0.00,,,149
2013-3-19,78,75,72,75,73,72,100,93,83,29.90,29.84,29.79,,,,41,35,52,0.16,,,155
2013-3-20,78,74,70,79,75,71,100,100,94,29.92,29.87,29.83,,,,41,34,53,0.51,,,142
2013-3-21,82,78,74,79,77,75,100,95,83,29.98,29.92,29.86,,,,26,18,30,0.16,,,112
2013-3-22,82,78,75,79,78,77,100,97,88,30.01,29.96,29.92,,,,26,22,33,0.12,,,116
2013-3-23,82,79,76,79,76,73,100,92,75,30.04,29.98,29.92,,,,25,20,29,0.01,,,121
2013-3-24,82,79,76,77,75,73,100,87,76,30.01,29.96,29.91,,,,22,19,,0.00,,,125
2013-3-25,82,79,76,75,73,70,89,84,72,29.98,29.93,29.89,,,,23,16,,0.00,,,126
2013-3-26,82,78,75,75,73,71,100,84,72,29.98,29.94,29.89,,,,26,20,38,0.08,,,125
2013-3-27,82,78,73,75,73,70,94,82,65,29.98,29.95,29.89,,,,24,22,37,0.04,,,125
2013-3-28,82,78,73,75,72,69,90,82,62,29.99,29.95,29.91,,,,28,21,33,0.08,,,122
2013-3-29,82,76,71,74,72,70,94,82,70,29.98,29.93,29.88,,,,22,17,38,0.01,,,127
2013-3-30,81,78,74,73,71,66,94,78,57,29.98,29.93,29.89,,,,18,14,,0.00,,,124
2013-3-31,82,78,74,73,71,69,94,78,62,29.96,29.92,29.86,,,,14,8,,0.00,,,75